createdAt,value
2022-10-20T00:01:09.918Z,6.60
2022-10-20T00:03:38.495Z,5.75
2022-10-20T00:06:13.345Z,3.97
2022-10-20T00:08:42.593Z,5.53
2022-10-20T00:11:12.763Z,4.32
2022-10-20T00:13:41.939Z,6.57
2022-10-20T00:16:10.818Z,5.50
2022-10-20T00:18:38.917Z,7.75
2022-10-20T00:21:08.119Z,5.72
2022-10-20T00:23:38.154Z,6.82
2022-10-20T00:26:07.944Z,8.70
2022-10-20T00:28:36.063Z,7.72
2022-10-20T00:31:04.553Z,8.55
2022-10-20T00:33:33.577Z,4.95
2022-10-20T00:36:02.591Z,9.02
2022-10-20T00:38:30.684Z,6.32
2022-10-20T00:41:03.038Z,6.30
2022-10-20T00:43:47.155Z,8.85
2022-10-20T00:46:18.057Z,7.68
2022-10-20T00:48:49.890Z,5.90
2022-10-20T00:51:21.462Z,6.00
2022-10-20T00:53:53.309Z,7.18
2022-10-20T00:56:24.236Z,4.65
2022-10-20T00:58:52.719Z,7.22
2022-10-20T01:01:21.309Z,9.52
2022-10-20T01:03:52.459Z,4.00
2022-10-20T01:06:23.190Z,5.97
2022-10-20T01:08:52.256Z,5.20
2022-10-20T01:11:30.067Z,4.95
2022-10-20T01:14:08.755Z,7.18
2022-10-20T01:16:45.488Z,6.22
2022-10-20T01:19:34.446Z,4.47
2022-10-20T01:22:27.114Z,5.63
2022-10-20T01:25:08.908Z,4.05
2022-10-20T01:27:41.100Z,4.75
2022-10-20T01:30:15.206Z,6.65
2022-10-20T01:33:08.130Z,6.15
2022-10-20T01:35:49.413Z,7.50
2022-10-20T01:38:24.636Z,6.20
2022-10-20T01:40:57.771Z,4.30
2022-10-20T01:43:30.783Z,7.40
2022-10-20T01:46:01.161Z,6.68
2022-10-20T01:48:33.300Z,6.03
2022-10-20T01:51:02.453Z,10.25
2022-10-20T01:53:30.529Z,8.70
2022-10-20T01:56:01.758Z,5.97
2022-10-20T01:59:00.475Z,5.38
2022-10-20T02:01:38.829Z,5.38
2022-10-20T02:04:09.731Z,7.13
2022-10-20T02:06:45.793Z,6.65
2022-10-20T02:09:19.091Z,11.25
2022-10-20T02:14:22.714Z,5.40
2022-10-20T02:16:53.853Z,6.78
2022-10-20T02:19:24.362Z,11.13
2022-10-20T02:21:53.874Z,7.75
2022-10-20T02:24:26.040Z,6.85
2022-10-20T02:26:57.017Z,5.35
2022-10-20T02:29:32.425Z,7.35
2022-10-20T02:32:00.642Z,7.45
2022-10-20T02:34:29.006Z,6.35
2022-10-20T02:36:59.156Z,13.52
2022-10-20T02:39:27.753Z,5.72
2022-10-20T02:41:55.818Z,7.18
2022-10-20T02:44:23.948Z,9.05
2022-10-20T02:46:53.366Z,6.90
2022-10-20T02:49:21.641Z,5.38
2022-10-20T02:51:49.757Z,5.78
2022-10-20T02:54:17.928Z,8.35
2022-10-20T02:56:46.098Z,8.52
2022-10-20T02:59:16.852Z,5.72
2022-10-20T03:01:45.211Z,8.75
2022-10-20T03:04:15.127Z,6.70
2022-10-20T03:06:43.308Z,8.18
2022-10-20T03:09:11.402Z,6.65
2022-10-20T03:11:39.502Z,6.60
2022-10-20T03:14:07.590Z,6.35
2022-10-20T03:16:35.754Z,7.50
2022-10-20T03:19:05.345Z,5.57
2022-10-20T03:21:36.732Z,5.25
2022-10-20T03:24:05.271Z,7.65
2022-10-20T03:26:33.511Z,6.13
2022-10-20T03:29:01.580Z,5.28
2022-10-20T03:31:29.806Z,11.68
2022-10-20T03:33:57.885Z,5.35
2022-10-20T03:36:26.130Z,8.13
2022-10-20T03:38:55.562Z,7.35
2022-10-20T03:41:23.602Z,6.03
2022-10-20T03:43:51.654Z,8.40
2022-10-20T03:46:19.734Z,6.40
2022-10-20T03:48:47.828Z,4.97
2022-10-20T03:51:16.160Z,8.82
2022-10-20T03:53:44.259Z,7.35
2022-10-20T03:56:18.440Z,8.18
2022-10-20T03:58:46.731Z,7.57
2022-10-20T04:01:16.912Z,4.68
2022-10-20T04:03:45.572Z,6.10
2022-10-20T04:06:14.327Z,8.55
2022-10-20T04:08:42.633Z,10.95
2022-10-20T04:11:10.920Z,5.93
2022-10-20T04:13:40.447Z,4.47
2022-10-20T04:16:09.368Z,9.52
2022-10-20T04:18:37.438Z,4.95
2022-10-20T04:21:05.887Z,6.95
2022-10-20T04:23:33.982Z,7.20
2022-10-20T04:26:08.221Z,11.88
2022-10-20T04:28:36.313Z,5.20
2022-10-20T04:31:06.520Z,8.55
2022-10-20T04:33:35.176Z,7.32
2022-10-20T04:36:05.408Z,9.35
2022-10-20T04:38:34.504Z,8.52
2022-10-20T04:41:04.764Z,6.43
2022-10-20T04:43:33.182Z,6.72
2022-10-20T04:46:05.419Z,5.57
2022-10-20T04:48:37.924Z,8.30
2022-10-20T04:51:08.317Z,7.78
2022-10-20T04:53:36.558Z,8.73
2022-10-20T04:56:06.026Z,7.72
2022-10-20T04:58:34.636Z,6.13
2022-10-20T05:01:04.244Z,6.05
2022-10-20T05:03:32.707Z,5.95
2022-10-20T05:06:12.258Z,5.65
2022-10-20T05:08:41.071Z,10.02
2022-10-20T05:11:09.578Z,12.50
2022-10-20T05:13:37.989Z,5.15
2022-10-20T05:16:07.097Z,7.03
2022-10-20T05:18:35.968Z,9.32
2022-10-20T05:21:09.734Z,8.38
2022-10-20T05:23:40.540Z,7.57
2022-10-20T05:26:11.504Z,6.82
2022-10-20T05:28:39.858Z,9.77
2022-10-20T05:31:09.461Z,9.40
2022-10-20T05:33:37.610Z,8.55
2022-10-20T05:36:10.121Z,10.13
2022-10-20T05:38:40.811Z,6.90
2022-10-20T05:41:11.007Z,9.70
2022-10-20T05:43:39.447Z,6.90
2022-10-20T05:46:07.776Z,15.65
2022-10-20T05:48:40.702Z,10.63
2022-10-20T05:51:14.753Z,9.02
2022-10-20T05:53:47.026Z,20.33
2022-10-20T05:56:16.901Z,20.35
2022-10-20T05:58:45.711Z,16.60
2022-10-20T06:01:17.265Z,16.23
2022-10-20T06:03:49.238Z,15.40
2022-10-20T06:06:19.491Z,15.68
2022-10-20T06:08:50.804Z,15.48
2022-10-20T06:11:20.371Z,9.80
2022-10-20T06:13:51.768Z,6.72
2022-10-20T06:16:22.839Z,8.18
2022-10-20T06:18:51.368Z,12.20
2022-10-20T06:21:21.451Z,9.45
2022-10-20T06:23:51.354Z,10.35
2022-10-20T06:26:21.285Z,10.02
2022-10-20T06:28:50.951Z,7.57
2022-10-20T06:31:21.723Z,10.65
2022-10-20T06:33:50.673Z,9.85
2022-10-20T06:36:20.176Z,8.57
2022-10-20T06:38:48.752Z,10.90
2022-10-20T06:41:19.018Z,11.95
2022-10-20T06:43:47.283Z,12.13
2022-10-20T06:46:17.247Z,12.10
2022-10-20T06:48:46.202Z,14.15
2022-10-20T06:51:16.107Z,10.57
2022-10-20T06:53:46.701Z,11.60
2022-10-20T06:56:18.151Z,14.32
2022-10-20T06:58:48.641Z,10.43
2022-10-20T07:01:18.403Z,14.80
2022-10-20T07:03:48.253Z,10.27
2022-10-20T07:06:18.179Z,12.23
2022-10-20T07:08:46.754Z,13.20
2022-10-20T07:11:17.924Z,9.95
2022-10-20T07:13:47.452Z,8.75
2022-10-20T07:16:17.077Z,10.90
2022-10-20T07:18:45.489Z,9.18
2022-10-20T07:21:15.374Z,7.63
2022-10-20T07:23:43.838Z,8.52
2022-10-20T07:26:15.212Z,6.50
2022-10-20T07:28:46.081Z,11.30
2022-10-20T07:31:16.159Z,10.95
2022-10-20T07:33:44.539Z,8.18
2022-10-20T07:36:14.175Z,14.55
2022-10-20T07:38:42.290Z,9.85
2022-10-20T07:41:10.962Z,11.35
2022-10-20T07:43:39.775Z,9.68
2022-10-20T07:46:10.307Z,8.18
2022-10-20T07:48:38.434Z,10.07
2022-10-20T07:51:18.663Z,10.82
2022-10-20T07:53:47.013Z,9.13
2022-10-20T07:56:15.910Z,8.98
2022-10-20T07:58:44.751Z,8.77
2022-10-20T08:01:14.496Z,8.43
2022-10-20T08:03:42.796Z,7.78
2022-10-20T08:06:10.895Z,10.25
2022-10-20T08:08:39.083Z,8.80
2022-10-20T08:11:07.640Z,10.15
2022-10-20T08:13:35.747Z,9.07
2022-10-20T08:16:09.942Z,9.00
2022-10-20T08:19:12.956Z,9.57
2022-10-20T08:24:02.611Z,8.45
2022-10-20T08:26:30.701Z,9.98
2022-10-20T08:28:58.875Z,10.90
2022-10-20T08:31:27.387Z,8.82
2022-10-20T08:33:59.736Z,8.20
2022-10-20T08:36:28.938Z,8.05
2022-10-20T08:39:03.410Z,6.53
2022-10-20T08:42:02.703Z,8.25
2022-10-20T08:44:30.492Z,7.15
2022-10-20T08:47:00.789Z,5.43
2022-10-20T08:49:33.343Z,10.80
2022-10-20T08:52:02.128Z,5.93
2022-10-20T08:54:30.605Z,7.80
2022-10-20T08:57:00.283Z,7.53
2022-10-20T08:59:34.103Z,7.10
2022-10-20T09:02:03.466Z,5.95
2022-10-20T09:04:38.750Z,7.45
2022-10-20T09:07:18.856Z,7.88
2022-10-20T09:09:47.322Z,8.77
2022-10-20T09:12:16.293Z,7.43
2022-10-20T09:14:44.384Z,10.23
2022-10-20T09:17:17.020Z,8.20
2022-10-20T09:19:49.845Z,9.82
2022-10-20T09:22:20.528Z,11.40
2022-10-20T09:24:49.995Z,7.35
2022-10-20T09:27:24.555Z,9.90
2022-10-20T09:29:52.674Z,9.80
2022-10-20T09:32:56.633Z,7.93
2022-10-20T09:35:27.442Z,7.82
2022-10-20T09:37:59.983Z,10.82
2022-10-20T09:40:28.565Z,6.77
2022-10-20T09:43:00.061Z,6.38
2022-10-20T09:45:30.528Z,8.38
2022-10-20T09:48:04.345Z,6.78
2022-10-20T09:50:37.651Z,6.18
2022-10-20T09:55:42.220Z,7.38
2022-10-20T09:58:20.097Z,6.95
2022-10-20T10:00:58.208Z,7.43
2022-10-20T10:03:27.016Z,9.43
2022-10-20T10:05:58.300Z,7.90
2022-10-20T10:08:30.525Z,10.05
2022-10-20T10:11:02.102Z,7.22
2022-10-20T10:13:33.229Z,6.00
2022-10-20T10:16:05.225Z,6.97
2022-10-20T10:18:33.804Z,9.32
2022-10-20T10:21:06.101Z,9.38
2022-10-20T10:23:36.530Z,8.50
2022-10-20T10:26:25.499Z,7.85
2022-10-20T10:29:00.512Z,8.55
2022-10-20T10:31:29.171Z,9.55
2022-10-20T10:34:23.761Z,12.60
2022-10-20T10:36:51.874Z,7.72
2022-10-20T10:39:20.010Z,6.68
2022-10-20T10:42:11.641Z,8.15
2022-10-20T10:44:55.146Z,8.80
2022-10-20T10:47:49.986Z,10.95
2022-10-20T10:50:28.418Z,7.15
2022-10-20T10:53:10.304Z,11.05
2022-10-20T10:55:49.753Z,7.97
2022-10-20T10:58:27.275Z,8.15
2022-10-20T11:01:04.762Z,8.30
2022-10-20T11:03:59.746Z,8.30
2022-10-20T11:06:39.038Z,11.73
2022-10-20T11:09:27.068Z,8.30
2022-10-20T11:12:19.594Z,9.38
2022-10-20T11:15:00.872Z,9.60
2022-10-20T11:17:48.356Z,8.95
2022-10-20T11:20:39.201Z,8.15
2022-10-20T11:26:13.446Z,9.88
2022-10-20T11:28:45.371Z,9.10
2022-10-20T11:31:26.273Z,10.73
2022-10-20T11:34:02.030Z,9.32
2022-10-20T11:36:36.285Z,8.77
2022-10-20T11:39:06.737Z,8.80
2022-10-20T11:44:15.751Z,9.55
2022-10-20T11:46:48.825Z,8.93
2022-10-20T11:49:20.032Z,10.15
2022-10-20T11:52:09.682Z,8.88
2022-10-20T11:55:04.289Z,8.40
2022-10-20T11:57:43.157Z,8.75
2022-10-20T12:00:37.234Z,9.52
2022-10-20T12:03:50.490Z,7.43
2022-10-20T12:06:39.386Z,9.55
2022-10-20T12:09:40.793Z,10.23
2022-10-20T12:12:14.819Z,9.50
2022-10-20T12:14:45.809Z,8.52
2022-10-20T12:17:32.046Z,8.27
2022-10-20T12:20:39.509Z,9.30
2022-10-20T12:23:48.935Z,8.15
2022-10-20T12:27:05.113Z,9.60
2022-10-20T12:29:57.546Z,8.85
2022-10-20T12:32:58.431Z,12.35
2022-10-20T12:36:01.769Z,10.35
2022-10-20T12:38:33.625Z,11.15
2022-10-20T12:41:03.403Z,11.48
2022-10-20T12:43:52.055Z,12.20
2022-10-20T12:46:24.181Z,12.48
2022-10-20T12:48:59.874Z,10.02
2022-10-20T12:51:40.894Z,9.52
2022-10-20T12:54:25.571Z,16.13
2022-10-20T12:56:56.179Z,9.82
2022-10-20T12:59:40.711Z,18.58
2022-10-20T13:02:48.884Z,11.93
2022-10-20T13:05:42.818Z,11.80
2022-10-20T13:08:35.055Z,11.27
2022-10-20T13:11:42.563Z,13.88
2022-10-20T13:14:36.980Z,8.80
2022-10-20T13:17:28.558Z,8.45
2022-10-20T13:20:02.123Z,11.30
2022-10-20T13:22:39.187Z,9.38
2022-10-20T13:25:20.649Z,11.68
2022-10-20T13:27:51.653Z,10.07
2022-10-20T13:30:23.423Z,13.10
2022-10-20T13:33:25.303Z,15.40
2022-10-20T13:35:59.162Z,12.32
2022-10-20T13:38:34.206Z,11.50
2022-10-20T13:41:12.160Z,11.48
2022-10-20T13:43:47.888Z,12.65
2022-10-20T13:46:30.645Z,10.35
2022-10-20T13:49:18.600Z,10.63
2022-10-20T13:51:50.791Z,11.23
2022-10-20T13:54:25.323Z,12.48
2022-10-20T13:56:54.461Z,16.45
2022-10-20T13:59:26.132Z,10.75
2022-10-20T14:01:57.616Z,11.48
2022-10-20T14:04:30.732Z,11.18
2022-10-20T14:07:04.320Z,10.63
2022-10-20T14:09:32.613Z,12.30
2022-10-20T14:12:05.083Z,11.45
2022-10-20T14:14:45.471Z,10.50
2022-10-20T14:17:22.965Z,11.85
2022-10-20T14:20:37.629Z,17.58
2022-10-20T14:23:07.119Z,10.15
2022-10-20T14:25:35.447Z,10.77
2022-10-20T14:28:06.658Z,12.10
2022-10-20T14:30:40.208Z,10.13
2022-10-20T14:33:16.189Z,8.63
2022-10-20T14:35:46.502Z,15.52
2022-10-20T14:38:21.359Z,9.88
2022-10-20T14:40:54.542Z,12.02
2022-10-20T14:43:31.233Z,7.82
2022-10-20T14:46:02.799Z,7.88
2022-10-20T14:48:36.806Z,11.80
2022-10-20T14:51:29.187Z,11.35
2022-10-20T14:54:25.805Z,10.15
2022-10-20T14:56:55.957Z,10.07
2022-10-20T14:59:26.991Z,12.43
2022-10-20T15:02:05.017Z,12.38
2022-10-20T15:04:36.079Z,13.48
2022-10-20T15:07:07.773Z,13.18
2022-10-20T15:09:41.428Z,10.13
2022-10-20T15:12:16.557Z,10.77
2022-10-20T15:14:47.808Z,11.90
2022-10-20T15:17:38.793Z,16.10
2022-10-20T15:20:37.405Z,11.77
2022-10-20T15:23:08.890Z,12.88
2022-10-20T15:25:44.340Z,11.75
2022-10-20T15:28:24.024Z,11.27
2022-10-20T15:30:52.277Z,10.70
2022-10-20T15:33:22.350Z,11.85
2022-10-20T15:35:51.008Z,13.55
2022-10-20T15:38:19.230Z,12.75
2022-10-20T15:40:47.658Z,11.52
2022-10-20T15:43:19.990Z,10.57
2022-10-20T15:45:53.846Z,14.10
2022-10-20T15:48:25.974Z,15.23
2022-10-20T15:50:54.436Z,14.98
2022-10-20T15:53:22.516Z,14.18
2022-10-20T15:55:50.573Z,12.25
2022-10-20T15:58:18.681Z,13.55
2022-10-20T16:00:46.840Z,11.90
2022-10-20T16:03:18.362Z,14.32
2022-10-20T16:05:48.290Z,12.40
2022-10-20T16:08:16.432Z,11.93
2022-10-20T16:10:45.048Z,11.55
2022-10-20T16:13:13.378Z,13.05
2022-10-20T16:15:44.430Z,11.55
2022-10-20T16:18:31.350Z,11.35
2022-10-20T16:21:01.932Z,14.15
2022-10-20T16:23:30.101Z,15.45
2022-10-20T16:25:58.222Z,13.02
2022-10-20T16:28:26.415Z,11.13
2022-10-20T16:31:03.492Z,12.57
2022-10-20T16:33:31.620Z,12.15
2022-10-20T16:36:04.479Z,12.25
2022-10-20T16:38:38.979Z,15.13
2022-10-20T16:41:10.799Z,11.77
2022-10-20T16:43:44.479Z,11.98
2022-10-20T16:46:16.627Z,16.38
2022-10-20T16:48:47.908Z,15.10
2022-10-20T16:51:19.187Z,13.93
2022-10-20T16:53:47.357Z,12.75
2022-10-20T16:56:19.839Z,12.75
2022-10-20T16:58:49.734Z,10.60
2022-10-20T17:01:24.699Z,12.95
2022-10-20T17:03:54.616Z,11.05
2022-10-20T17:06:25.767Z,14.70
2022-10-20T17:08:59.931Z,10.60
2022-10-20T17:11:31.441Z,13.30
2022-10-20T17:14:00.422Z,16.33
2022-10-20T17:16:30.600Z,11.65
2022-10-20T17:19:01.577Z,15.20
2022-10-20T17:21:32.628Z,11.93
2022-10-20T17:24:01.043Z,12.38
2022-10-20T17:26:31.395Z,14.20
2022-10-20T17:29:01.625Z,14.18
2022-10-20T17:31:30.596Z,14.88
2022-10-20T17:33:59.497Z,13.55
2022-10-20T17:36:28.549Z,13.75
2022-10-20T17:38:59.931Z,14.55
2022-10-20T17:41:28.542Z,15.38
2022-10-20T17:43:56.823Z,14.15
2022-10-20T17:46:26.254Z,14.38
2022-10-20T17:48:56.867Z,12.63
2022-10-20T17:51:30.350Z,12.35
2022-10-20T17:54:09.279Z,11.63
2022-10-20T17:56:40.232Z,16.88
2022-10-20T17:59:13.657Z,13.60
2022-10-20T18:01:47.556Z,14.57
2022-10-20T18:04:21.477Z,13.93
2022-10-20T18:06:53.322Z,14.65
2022-10-20T18:09:34.530Z,14.15
2022-10-20T18:12:08.976Z,16.63
2022-10-20T18:14:39.478Z,13.43
2022-10-20T18:17:07.894Z,15.20
2022-10-20T18:20:13.312Z,16.42
2022-10-20T18:22:41.527Z,15.07
2022-10-20T18:25:11.477Z,16.25
2022-10-20T18:27:39.813Z,13.32
2022-10-20T18:30:09.613Z,17.15
2022-10-20T18:32:37.940Z,15.05
2022-10-20T18:35:07.391Z,17.05
2022-10-20T18:37:35.882Z,14.70
2022-10-20T18:40:04.294Z,15.73
2022-10-20T18:42:34.834Z,16.77
2022-10-20T18:45:02.992Z,17.17
2022-10-20T18:47:31.071Z,16.20
2022-10-20T18:49:59.146Z,22.73
2022-10-20T18:52:27.238Z,15.77
2022-10-20T18:54:55.643Z,13.63
2022-10-20T18:57:23.742Z,13.07
2022-10-20T18:59:53.192Z,14.15
2022-10-20T19:02:21.317Z,17.65
2022-10-20T19:04:49.394Z,15.85
2022-10-20T19:07:18.035Z,15.90
2022-10-20T19:09:46.592Z,16.00
2022-10-20T19:12:14.652Z,16.30
2022-10-20T19:14:42.713Z,17.92
2022-10-20T19:17:12.324Z,18.30
2022-10-20T19:19:41.835Z,19.02
2022-10-20T19:22:09.985Z,19.00
2022-10-20T19:24:40.580Z,15.63
2022-10-20T19:27:26.905Z,18.75
2022-10-20T19:29:56.417Z,15.77
2022-10-20T19:32:25.964Z,31.30
2022-10-20T19:34:54.522Z,28.55
2022-10-20T19:37:23.014Z,22.40
2022-10-20T19:39:51.270Z,26.92
2022-10-20T19:42:19.502Z,18.13
2022-10-20T19:44:48.065Z,18.30
2022-10-20T19:47:16.751Z,16.17
2022-10-20T19:49:46.271Z,17.13
2022-10-20T19:52:14.347Z,15.88
2022-10-20T19:54:42.447Z,16.20
2022-10-20T19:57:13.241Z,19.10
2022-10-20T19:59:41.326Z,13.70
2022-10-20T20:02:10.836Z,16.67
2022-10-20T20:04:38.946Z,15.73
2022-10-20T20:07:08.478Z,14.68
2022-10-20T20:09:36.632Z,19.67
2022-10-20T20:12:04.876Z,18.13
2022-10-20T20:14:32.971Z,17.15
2022-10-20T20:17:01.063Z,15.73
2022-10-20T20:19:29.175Z,17.63
2022-10-20T20:21:57.254Z,17.67
2022-10-20T20:24:26.732Z,16.83
2022-10-20T20:26:54.825Z,16.65
2022-10-20T20:29:22.954Z,17.13
2022-10-20T20:31:51.130Z,18.25
2022-10-20T20:34:19.199Z,14.48
2022-10-20T20:36:47.300Z,16.13
2022-10-20T20:39:15.381Z,17.85
2022-10-20T20:41:44.879Z,19.58
2022-10-20T20:44:12.986Z,18.92
2022-10-20T20:46:41.127Z,18.80
2022-10-20T20:49:09.480Z,17.85
2022-10-20T20:51:37.524Z,16.27
2022-10-20T20:54:05.615Z,18.83
2022-10-20T20:56:33.797Z,19.27
2022-10-20T20:59:03.611Z,21.02
2022-10-20T21:01:32.653Z,18.48
2022-10-20T21:04:04.259Z,17.27
2022-10-20T21:06:56.622Z,19.27
2022-10-20T21:09:21.906Z,16.40
2022-10-20T21:11:50.615Z,18.58
2022-10-20T21:14:20.155Z,17.52
2022-10-20T21:16:48.271Z,17.70
2022-10-20T21:19:16.507Z,17.40
2022-10-20T21:21:50.187Z,18.88
2022-10-20T21:24:18.879Z,17.90
2022-10-20T21:26:48.675Z,14.55
2022-10-20T21:29:16.882Z,15.30
2022-10-20T21:31:46.345Z,15.13
2022-10-20T21:34:14.451Z,15.25
2022-10-20T21:36:42.635Z,15.82
2022-10-20T21:39:15.798Z,16.95
2022-10-20T21:41:44.703Z,16.70
2022-10-20T21:44:14.608Z,16.13
2022-10-20T21:46:45.597Z,18.88
2022-10-20T21:49:16.640Z,20.27
2022-10-20T21:51:46.561Z,22.80
2022-10-20T21:54:16.201Z,17.38
2022-10-20T21:56:46.839Z,18.80
2022-10-20T21:59:19.058Z,21.75
2022-10-20T22:01:49.568Z,20.15
2022-10-20T22:04:21.431Z,18.75
2022-10-20T22:06:49.597Z,17.20
2022-10-20T22:09:17.927Z,19.73
2022-10-20T22:11:49.978Z,17.48
2022-10-20T22:14:18.377Z,15.80
2022-10-20T22:16:46.499Z,18.15
2022-10-20T22:19:16.337Z,16.23
2022-10-20T22:21:47.150Z,20.25
2022-10-20T22:24:16.317Z,18.65
2022-10-20T22:26:44.485Z,19.42
2022-10-20T22:29:13.140Z,13.80
2022-10-20T22:31:42.137Z,17.73
2022-10-20T22:34:10.842Z,18.15
2022-10-20T22:36:39.385Z,19.52
2022-10-20T22:39:09.515Z,17.70
2022-10-20T22:41:37.823Z,17.40
2022-10-20T22:44:06.445Z,17.45
2022-10-20T22:46:34.635Z,17.42
2022-10-20T22:49:02.912Z,19.33
2022-10-20T22:51:31.019Z,18.40
2022-10-20T22:53:59.069Z,16.85
2022-10-20T22:56:28.530Z,20.10
2022-10-20T22:58:56.628Z,19.77
2022-10-20T23:01:25.126Z,19.67
2022-10-20T23:03:53.571Z,17.52
2022-10-20T23:06:24.238Z,26.10
2022-10-20T23:08:55.133Z,17.27
2022-10-20T23:11:24.900Z,18.77
2022-10-20T23:13:54.418Z,16.13
2022-10-20T23:18:57.911Z,19.38
2022-10-20T23:21:26.448Z,16.88
2022-10-20T23:23:54.501Z,15.13
2022-10-20T23:26:22.580Z,14.35
2022-10-20T23:28:50.672Z,20.30
2022-10-20T23:31:22.504Z,16.20
2022-10-20T23:33:54.833Z,14.27
2022-10-20T23:36:23.680Z,16.05
2022-10-20T23:38:51.773Z,16.40
2022-10-20T23:41:20.062Z,13.68
2022-10-20T23:43:48.119Z,11.95
2022-10-20T23:46:16.193Z,22.25
2022-10-20T23:48:45.684Z,15.65
2022-10-20T23:51:13.819Z,16.63
2022-10-20T23:53:41.901Z,17.73
2022-10-20T23:56:09.952Z,15.73
2022-10-20T23:58:38.023Z,17.60
